Time;durP1;ratioP1;P1;durP2;ratioP2;P2;SDS_P1;SDS_P2;PMS_P1;PMS_P2;Temp;Humidity;BMP_temperature;BMP_pressure;BME280_temperature;BME280_humidity;BME280_pressure;Samples;Min_cycle;Max_cycle;Signal;HPM_P1;HPM_P2
2021/03/10 00:01:34;;;;;;;22.73;6.30;;;;;;;8.83;100.00;101768.78;5094356;28;20043;-65
2021/03/10 00:04:00;;;;;;;31.95;7.85;;;;;;;8.84;100.00;101749.50;5094063;28;20068;-65
2021/03/10 00:06:25;;;;;;;25.00;7.50;;;;;;;8.84;100.00;101748.66;5094229;28;20066;-64
2021/03/10 00:08:51;;;;;;;24.73;7.82;;;;;;;8.85;100.00;101750.34;5093862;28;20074;-64
2021/03/10 00:11:17;;;;;;;23.73;7.53;;;;;;;8.85;100.00;101728.56;5094029;28;20089;-65
2021/03/10 00:13:43;;;;;;;24.25;8.15;;;;;;;8.86;100.00;101742.00;5093918;28;20070;-65
2021/03/10 00:16:09;;;;;;;21.83;6.15;;;;;;;8.87;100.00;101735.50;5093784;28;20036;-65
2021/03/10 00:18:34;;;;;;;27.10;7.63;;;;;;;8.89;100.00;101748.91;5093762;28;20036;-65
2021/03/10 00:21:00;;;;;;;28.50;7.28;;;;;;;8.88;100.00;101747.22;5093838;28;20063;-65
2021/03/10 00:23:25;;;;;;;26.30;7.35;;;;;;;8.89;100.00;101740.72;5093507;28;20044;-65
2021/03/10 00:25:51;;;;;;;30.15;6.97;;;;;;;8.91;100.00;101738.63;5093706;28;20032;-65
2021/03/10 00:28:16;;;;;;;24.75;6.90;;;;;;;8.93;100.00;101736.53;5093989;28;20497;-64
2021/03/10 00:30:42;;;;;;;24.75;7.03;;;;;;;8.94;100.00;101732.75;5075307;28;20130;-65
2021/03/10 00:33:08;;;;;;;34.08;8.18;;;;;;;8.93;100.00;101722.91;5093606;28;20111;-64
2021/03/10 00:35:33;;;;;;;24.98;5.90;;;;;;;8.93;100.00;101720.19;5093438;28;20059;-65
2021/03/10 00:38:00;;;;;;;20.80;6.85;;;;;;;8.93;100.00;101720.19;5093137;28;20036;-65
2021/03/10 00:40:27;;;;;;;24.50;5.72;;;;;;;8.94;100.00;101705.50;5093506;28;20032;-65
2021/03/10 00:42:52;;;;;;;23.77;7.15;;;;;;;8.95;100.00;101702.56;5093331;28;20044;-65
2021/03/10 00:45:18;;;;;;;28.73;7.10;;;;;;;8.95;100.00;101701.75;5093250;28;20114;-65
2021/03/10 00:47:44;;;;;;;26.98;6.97;;;;;;;8.96;100.00;101693.34;5093288;28;20382;-64
2021/03/10 00:50:10;;;;;;;31.00;7.45;;;;;;;8.97;100.00;101675.94;5093336;28;20066;-65
2021/03/10 00:52:36;;;;;;;30.92;6.63;;;;;;;8.96;100.00;101687.91;5093030;28;20043;-65
2021/03/10 00:55:03;;;;;;;14.25;5.40;;;;;;;8.97;100.00;101680.56;5093315;28;20032;-64
2021/03/10 00:57:28;;;;;;;27.92;7.68;;;;;;;8.99;100.00;101681.19;5092985;28;20040;-64
2021/03/10 00:59:54;;;;;;;21.48;5.80;;;;;;;8.98;100.00;101674.06;5092882;28;20098;-65
2021/03/10 01:02:19;;;;;;;24.30;7.38;;;;;;;8.99;100.00;101686.63;5074743;28;20043;-64
2021/03/10 01:04:45;;;;;;;28.27;6.47;;;;;;;8.98;100.00;101674.06;5093083;28;20478;-65
2021/03/10 01:07:11;;;;;;;25.92;6.00;;;;;;;9.00;100.00;101669.22;5092693;28;20032;-65
2021/03/10 01:09:36;;;;;;;31.63;7.60;;;;;;;9.01;100.00;101660.00;5092904;28;20035;-64
2021/03/10 01:12:02;;;;;;;27.13;6.88;;;;;;;9.03;100.00;101671.56;5092810;28;20305;-65
2021/03/10 01:14:27;;;;;;;25.00;6.05;;;;;;;9.04;100.00;101662.34;5092673;28;20043;-65
2021/03/10 01:16:53;;;;;;;28.35;6.97;;;;;;;9.04;100.00;101656.88;5092788;28;20062;-64
2021/03/10 01:19:19;;;;;;;22.38;5.35;;;;;;;9.04;100.00;101655.00;5092602;28;20097;-65
2021/03/10 01:21:44;;;;;;;28.90;6.32;;;;;;;9.04;100.00;101640.53;5092575;28;20042;-65
2021/03/10 01:24:11;;;;;;;29.33;6.32;;;;;;;9.05;100.00;101639.47;5092525;28;20040;-65
2021/03/10 01:26:36;;;;;;;23.95;6.68;;;;;;;9.04;100.00;101629.63;5092577;28;20122;-65
2021/03/10 01:29:03;;;;;;;24.13;6.05;;;;;;;9.03;100.00;101638.88;5092590;28;20081;-65
2021/03/10 01:31:28;;;;;;;17.67;6.45;;;;;;;9.04;100.00;101608.66;5092292;28;20060;-65
2021/03/10 01:33:54;;;;;;;26.17;5.97;;;;;;;9.05;100.00;101614.97;5092691;28;20394;-65
2021/03/10 01:36:20;;;;;;;30.02;6.15;;;;;;;9.07;100.00;101615.56;5092329;28;20062;-65
2021/03/10 01:38:46;;;;;;;24.13;5.70;;;;;;;9.10;100.00;101617.88;5092153;28;20376;-65
2021/03/10 01:41:13;;;;;;;26.17;5.72;;;;;;;9.11;100.00;101608.66;5092281;28;20089;-65
2021/03/10 01:43:39;;;;;;;26.40;5.53;;;;;;;9.13;100.00;101606.53;5092207;28;20083;-64
2021/03/10 01:46:04;;;;;;;33.08;5.80;;;;;;;9.14;100.00;101601.91;5092112;28;20127;-65
2021/03/10 01:48:30;;;;;;;34.92;5.68;;;;;;;9.16;100.00;101605.28;5091433;28;20036;-65
2021/03/10 01:50:56;;;;;;;28.17;5.90;;;;;;;9.16;100.00;101595.19;5092039;28;20086;-65
2021/03/10 01:53:22;;;;;;;24.77;7.28;;;;;;;9.17;100.00;101591.41;5091746;28;20050;-65
2021/03/10 01:55:52;;;;;;;31.45;6.32;;;;;;;9.18;100.00;101595.81;5091999;28;20501;-65
2021/03/10 01:58:18;;;;;;;25.88;5.22;;;;;;;9.19;100.00;101583.03;5091928;28;20119;-65
2021/03/10 02:00:44;;;;;;;29.20;5.88;;;;;;;9.20;100.00;101588.28;5091613;28;20138;-65
2021/03/10 02:03:10;;;;;;;28.33;5.70;;;;;;;9.23;100.00;101585.13;5091802;28;20075;-65
2021/03/10 02:05:35;;;;;;;26.90;5.63;;;;;;;9.24;100.00;101575.06;5091869;28;20063;-66
2021/03/10 02:08:26;;;;;;;31.02;5.30;;;;;;;9.25;100.00;101576.75;5091539;28;20039;-65
2021/03/10 02:11:10;;;;;;;24.55;4.85;;;;;;;9.25;100.00;101560.38;5091744;28;20036;-65
2021/03/10 02:13:41;;;;;;;25.45;5.30;;;;;;;9.24;100.00;101565.00;5091940;28;20054;-65
2021/03/10 02:16:26;;;;;;;29.80;5.53;;;;;;;9.25;100.00;101549.47;5091500;28;20115;-64
2021/03/10 02:19:00;;;;;;;28.00;5.57;;;;;;;9.25;100.00;101561.22;5091591;28;20047;-64
2021/03/10 02:21:31;;;;;;;31.95;5.53;;;;;;;9.24;100.00;101556.81;5091417;28;20035;-65
2021/03/10 02:24:15;;;;;;;30.55;5.38;;;;;;;9.23;100.00;101549.69;5091368;28;20032;-65
2021/03/10 02:27:15;;;;;;;29.63;4.95;;;;;;;9.24;100.00;101536.91;5091512;28;20085;-65
2021/03/10 02:29:42;;;;;;;23.02;5.63;;;;;;;9.23;100.00;101541.53;5091325;28;20071;-65
2021/03/10 02:32:10;;;;;;;25.70;4.82;;;;;;;9.22;100.00;101520.78;5091239;28;20047;-64
2021/03/10 02:34:37;;;;;;;32.08;5.75;;;;;;;9.22;100.00;101526.22;5091473;28;20035;-65
2021/03/10 02:37:05;;;;;;;37.67;5.57;;;;;;;9.21;100.00;101519.09;5091022;28;20050;-64
2021/03/10 02:39:32;;;;;;;31.80;5.55;;;;;;;9.21;100.00;101516.38;5091247;28;20437;-65
2021/03/10 02:41:57;;;;;;;28.42;5.80;;;;;;;9.21;100.00;101510.91;5091332;28;20060;-64
2021/03/10 02:44:24;;;;;;;27.85;5.75;;;;;;;9.19;100.00;101504.81;5090977;28;20086;-64
2021/03/10 02:46:50;;;;;;;30.65;5.13;;;;;;;9.19;100.00;101495.81;5091181;28;20040;-64
2021/03/10 02:49:17;;;;;;;35.05;5.60;;;;;;;9.17;100.00;101493.31;5091122;28;20027;-64
2021/03/10 02:51:44;;;;;;;31.17;5.47;;;;;;;9.16;100.00;101486.19;5090876;28;20055;-64
2021/03/10 02:54:14;;;;;;;27.05;5.35;;;;;;;9.16;100.00;101497.09;5091067;28;20032;-65
2021/03/10 02:56:42;;;;;;;41.95;6.32;;;;;;;9.17;100.00;101492.47;5090997;28;20036;-65
2021/03/10 02:59:08;;;;;;;36.03;6.75;;;;;;;9.16;100.00;101491.63;5090611;28;20063;-64
2021/03/10 03:01:34;;;;;;;39.50;7.05;;;;;;;9.16;100.00;101475.28;5090971;28;20101;-64
2021/03/10 03:04:00;;;;;;;38.50;4.90;;;;;;;9.17;100.00;101493.31;5090821;28;20048;-64
2021/03/10 03:06:25;;;;;;;30.55;6.15;;;;;;;9.17;100.00;101473.38;5090808;28;20032;-64
2021/03/10 03:08:51;;;;;;;26.13;5.65;;;;;;;9.16;100.00;101472.56;5090835;28;20093;-64
2021/03/10 03:11:17;;;;;;;37.95;5.40;;;;;;;9.16;100.00;101464.38;5090840;28;20043;-64
2021/03/10 03:13:42;;;;;;;39.45;5.45;;;;;;;9.16;100.00;101464.38;5090681;28;20040;-64
2021/03/10 03:16:08;;;;;;;31.98;6.43;;;;;;;9.17;100.00;101460.59;5090840;28;20466;-64
2021/03/10 03:18:35;;;;;;;42.90;5.88;;;;;;;9.16;100.00;101455.38;5090727;28;20047;-65
2021/03/10 03:21:01;;;;;;;49.75;5.47;;;;;;;9.16;100.00;101445.31;5090566;28;20497;-64
2021/03/10 03:23:27;;;;;;;39.90;5.93;;;;;;;9.17;100.00;101455.16;5090760;28;20047;-64
2021/03/10 03:25:55;;;;;;;35.10;6.45;;;;;;;9.16;100.00;101442.56;5090874;28;20410;-64
2021/03/10 03:28:25;;;;;;;43.25;5.50;;;;;;;9.15;100.00;101424.56;5090521;28;20077;-64
2021/03/10 03:30:53;;;;;;;36.53;5.57;;;;;;;9.16;100.00;101426.22;5090720;28;20123;-64
2021/03/10 03:33:22;;;;;;;42.63;5.72;;;;;;;9.15;100.00;101430.00;5090576;28;20044;-63
2021/03/10 03:35:52;;;;;;;46.83;6.88;;;;;;;9.15;100.00;101419.09;5090478;28;20040;-64
2021/03/10 03:38:20;;;;;;;48.17;7.07;;;;;;;9.14;100.00;101411.97;5090556;28;20075;-64
2021/03/10 03:40:48;;;;;;;44.08;6.97;;;;;;;9.14;100.00;101401.09;5090567;28;20114;-64
2021/03/10 03:43:15;;;;;;;38.17;5.70;;;;;;;9.14;100.00;101394.78;5090400;28;20035;-64
2021/03/10 03:45:40;;;;;;;44.05;5.90;;;;;;;9.14;100.00;101406.53;5090476;28;20119;-64
2021/03/10 03:48:07;;;;;;;37.53;5.90;;;;;;;9.14;100.00;101390.19;5090557;28;20531;-64
2021/03/10 03:50:33;;;;;;;37.85;5.78;;;;;;;9.13;100.00;101388.50;5090387;28;20040;-64
2021/03/10 03:52:58;;;;;;;36.08;5.13;;;;;;;9.14;100.00;101384.72;5090445;28;20552;-64
2021/03/10 03:55:24;;;;;;;41.53;5.55;;;;;;;9.13;100.00;101377.63;5090478;28;20040;-65
2021/03/10 03:57:50;;;;;;;46.65;5.30;;;;;;;9.14;100.00;101376.56;5090201;28;20048;-64
2021/03/10 04:00:19;;;;;;;39.83;5.43;;;;;;;9.16;100.00;101382.63;5090151;28;20052;-64
2021/03/10 04:02:49;;;;;;;49.08;6.82;;;;;;;9.17;100.00;101369.81;5090486;28;20032;-64
2021/03/10 04:05:19;;;;;;;38.35;5.95;;;;;;;9.18;100.00;101363.31;5090296;28;20441;-64
2021/03/10 04:07:47;;;;;;;46.60;5.43;;;;;;;9.18;100.00;101358.72;5090307;28;20024;-64
2021/03/10 04:10:13;;;;;;;35.90;4.95;;;;;;;9.19;100.00;101354.91;5090310;28;20036;-64
2021/03/10 04:12:38;;;;;;;39.70;5.68;;;;;;;9.19;100.00;101354.91;5093206;28;20086;-64
2021/03/10 04:15:04;;;;;;;44.95;7.20;;;;;;;9.23;100.00;101356.19;5094530;28;20050;-64
2021/03/10 04:17:31;;;;;;;39.83;6.53;;;;;;;9.24;100.00;101352.38;5093802;28;20032;-64
2021/03/10 04:19:56;;;;;;;40.42;6.57;;;;;;;9.24;100.00;101346.09;5093809;28;20032;-64
2021/03/10 04:22:22;;;;;;;49.72;6.88;;;;;;;9.24;100.00;101349.66;5093853;28;20040;-63
2021/03/10 04:24:47;;;;;;;46.58;6.70;;;;;;;9.23;100.00;101350.72;5093837;28;20032;-64
2021/03/10 04:27:15;;;;;;;46.83;7.38;;;;;;;9.24;100.00;101346.94;5093627;28;20566;-64
2021/03/10 04:29:41;;;;;;;51.55;7.05;;;;;;;9.23;100.00;101336.25;5093721;28;20078;-64
2021/03/10 04:32:07;;;;;;;37.03;6.72;;;;;;;9.24;100.00;101336.03;5093633;28;20031;-64
2021/03/10 04:34:33;;;;;;;46.95;7.47;;;;;;;9.24;100.00;101330.59;5093518;28;20044;-64
2021/03/10 04:36:58;;;;;;;49.40;7.85;;;;;;;9.23;100.00;101328.91;5093821;28;20603;-63
2021/03/10 04:39:24;;;;;;;43.05;6.68;;;;;;;9.24;100.00;101329.75;5075243;28;20044;-64
2021/03/10 04:41:50;;;;;;;40.72;6.25;;;;;;;9.24;100.00;101319.69;5093322;28;20063;-64
2021/03/10 04:44:15;;;;;;;52.95;8.68;;;;;;;9.23;100.00;101318.00;5093341;28;20036;-63
2021/03/10 04:46:41;;;;;;;47.45;6.85;;;;;;;9.24;100.00;101305.22;5093382;28;20036;-64
2021/03/10 04:49:09;;;;;;;45.35;6.85;;;;;;;9.24;100.00;101308.78;5093140;28;20032;-64
2021/03/10 04:51:36;;;;;;;55.75;8.10;;;;;;;9.25;100.00;101305.00;5093136;28;20052;-65
2021/03/10 04:54:01;;;;;;;37.05;6.43;;;;;;;9.26;100.00;101306.66;5093227;28;20036;-64
2021/03/10 04:56:27;;;;;;;45.33;6.63;;;;;;;9.25;100.00;101304.16;5092989;28;20398;-64
2021/03/10 04:58:53;;;;;;;48.83;6.28;;;;;;;9.23;100.00;101300.84;5092787;28;20040;-64
2021/03/10 05:01:19;;;;;;;41.80;6.47;;;;;;;9.21;100.00;101281.13;5093160;28;20117;-64
2021/03/10 05:03:44;;;;;;;50.95;6.93;;;;;;;9.20;100.00;101277.59;5092999;28;20418;-64
2021/03/10 05:06:10;;;;;;;43.92;6.82;;;;;;;9.22;100.00;101288.25;5093003;28;20086;-64
2021/03/10 05:08:36;;;;;;;51.05;7.65;;;;;;;9.22;100.00;101286.38;5093009;28;20535;-64
2021/03/10 05:11:02;;;;;;;49.97;7.82;;;;;;;9.21;100.00;101276.53;5092915;28;20032;-64
2021/03/10 05:13:28;;;;;;;48.67;6.15;;;;;;;9.22;100.00;101277.34;5092696;28;20394;-64
2021/03/10 05:15:54;;;;;;;50.85;6.78;;;;;;;9.22;100.00;101278.19;5092809;28;20048;-63
2021/03/10 05:18:19;;;;;;;40.00;6.57;;;;;;;9.23;100.00;101273.56;5092685;28;20039;-64
2021/03/10 05:20:45;;;;;;;55.70;7.45;;;;;;;9.21;100.00;101279.25;5092573;28;20051;-64
2021/03/10 05:23:10;;;;;;;50.63;6.70;;;;;;;9.23;100.00;101274.41;5091666;28;20047;-64
2021/03/10 05:25:36;;;;;;;50.92;8.13;;;;;;;9.22;100.00;101272.75;5092596;28;20040;-64
2021/03/10 05:28:02;;;;;;;49.78;8.80;;;;;;;9.23;100.00;101268.94;5092504;28;20040;-65
2021/03/10 05:30:27;;;;;;;58.80;7.90;;;;;;;9.24;100.00;101267.06;5092434;28;20044;-64
2021/03/10 05:32:53;;;;;;;59.03;7.40;;;;;;;9.25;100.00;101266.84;5092429;28;20036;-63
2021/03/10 05:35:19;;;;;;;47.90;7.88;;;;;;;9.24;100.00;101276.06;5092396;28;20082;-64
2021/03/10 05:37:44;;;;;;;58.08;8.35;;;;;;;9.26;100.00;101268.50;5092058;28;20032;-64
2021/03/10 05:40:10;;;;;;;50.88;8.45;;;;;;;9.27;100.00;101270.16;5092151;28;20039;-64
2021/03/10 05:42:42;;;;;;;55.03;9.40;;;;;;;9.28;100.00;101255.47;5091889;28;20379;-64
2021/03/10 05:45:09;;;;;;;40.53;6.93;;;;;;;9.28;100.00;101260.94;5092132;28;20043;-63
2021/03/10 05:47:35;;;;;;;59.40;9.32;;;;;;;9.28;100.00;101260.94;5092080;28;20028;-63
2021/03/10 05:50:01;;;;;;;46.00;8.40;;;;;;;9.29;100.00;101262.59;5091948;28;20494;-64
2021/03/10 05:52:29;;;;;;;63.78;8.57;;;;;;;9.29;100.00;101259.88;5092094;28;20028;-64
2021/03/10 05:54:59;;;;;;;65.55;9.55;;;;;;;9.29;100.00;101257.16;5091895;28;20399;-63
2021/03/10 05:57:24;;;;;;;55.10;9.27;;;;;;;9.28;100.00;101244.59;5091757;28;20047;-64
2021/03/10 05:59:50;;;;;;;57.63;9.15;;;;;;;9.29;100.00;101254.44;5091700;28;20052;-65
2021/03/10 06:02:16;;;;;;;48.95;8.75;;;;;;;9.29;100.00;101256.31;5091978;28;20550;-64
2021/03/10 06:04:43;;;;;;;53.42;9.25;;;;;;;9.28;100.00;101243.75;5091699;28;20036;-65
2021/03/10 06:07:22;;;;;;;52.55;9.88;;;;;;;9.29;100.00;101240.78;5091899;28;20165;-64
2021/03/10 06:10:04;;;;;;;64.88;9.02;;;;;;;9.30;100.00;101234.28;5091699;28;20443;-64
2021/03/10 06:12:56;;;;;;;70.10;9.80;;;;;;;9.32;100.00;101234.06;5091529;28;20039;-64
2021/03/10 06:15:22;;;;;;;76.05;12.88;;;;;;;9.32;100.00;101229.44;5087010;28;20059;-64
2021/03/10 06:17:49;;;;;;;61.45;10.73;;;;;;;9.32;100.00;101243.06;5091292;28;20036;-64
2021/03/10 06:20:25;;;;;;;64.85;11.95;;;;;;;9.33;100.00;101239.28;5091792;28;20115;-64
2021/03/10 06:22:53;;;;;;;72.68;12.07;;;;;;;9.33;100.00;101231.09;5091570;28;20028;-64
2021/03/10 06:25:24;;;;;;;56.42;10.43;;;;;;;9.33;100.00;101201.13;5091315;28;20042;-65
2021/03/10 06:27:54;;;;;;;68.53;12.30;;;;;;;9.33;100.00;101213.91;5091935;28;20067;-65
2021/03/10 06:30:33;;;;;;;76.10;11.80;;;;;;;9.33;100.00;101224.81;5091341;28;20114;-64
2021/03/10 06:32:59;;;;;;;70.95;11.90;;;;;;;9.35;100.00;101233.59;5091214;28;20039;-65
2021/03/10 06:35:26;;;;;;;62.63;12.25;;;;;;;9.34;100.00;101224.59;5091095;28;20047;-64
2021/03/10 06:37:52;;;;;;;69.40;12.02;;;;;;;9.33;100.00;101225.66;5091210;28;20470;-64
2021/03/10 06:40:18;;;;;;;54.92;9.98;;;;;;;9.33;100.00;101225.66;5091127;28;20051;-64
2021/03/10 06:42:54;;;;;;;49.58;9.18;;;;;;;9.32;100.00;101218.53;5091140;28;20486;-64
2021/03/10 06:45:31;;;;;;;65.45;9.77;;;;;;;9.32;100.00;101209.53;5091205;28;20036;-64
2021/03/10 06:47:57;;;;;;;51.33;8.38;;;;;;;9.30;100.00;101209.75;5091140;28;20092;-63
2021/03/10 06:50:34;;;;;;;44.72;8.52;;;;;;;9.27;100.00;101223.84;5091073;28;20048;-65
2021/03/10 06:52:59;;;;;;;60.28;9.05;;;;;;;9.26;100.00;101200.38;5091103;28;20394;-64
2021/03/10 06:55:38;;;;;;;52.67;8.30;;;;;;;9.27;100.00;101188.41;5090927;28;20402;-65
2021/03/10 06:58:05;;;;;;;45.72;8.55;;;;;;;9.28;100.00;101194.69;5090932;28;20417;-65
2021/03/10 07:00:31;;;;;;;39.72;7.40;;;;;;;9.29;100.00;101197.19;5090697;28;20044;-65
2021/03/10 07:02:58;;;;;;;54.35;8.52;;;;;;;9.31;100.00;101177.88;5072730;28;20067;-64
2021/03/10 07:05:24;;;;;;;52.10;8.52;;;;;;;9.31;100.00;101186.88;5090915;28;20028;-65
2021/03/10 07:07:51;;;;;;;57.58;9.75;;;;;;;9.34;100.00;101172.78;5090770;28;20028;-64
2021/03/10 07:10:17;;;;;;;52.90;8.32;;;;;;;9.36;100.00;101202.56;5090577;28;20071;-64
2021/03/10 07:12:44;;;;;;;53.88;8.85;;;;;;;9.38;100.00;101172.38;5090894;28;20075;-64
2021/03/10 07:15:09;;;;;;;41.75;8.30;;;;;;;9.40;100.00;101165.63;5091092;28;20028;-65
2021/03/10 07:17:35;;;;;;;59.08;8.25;;;;;;;9.42;100.00;101173.56;5090592;28;20039;-64
2021/03/10 07:20:02;;;;;;;63.75;9.30;;;;;;;9.43;100.00;101169.78;5090858;28;20371;-64
2021/03/10 07:22:32;;;;;;;57.08;8.52;;;;;;;9.44;100.00;101171.44;5090556;28;20040;-64
2021/03/10 07:25:06;;;;;;;51.72;10.10;;;;;;;9.46;100.00;101166.59;5090545;28;20044;-64
2021/03/10 07:27:44;;;;;;;50.47;8.77;;;;;;;9.45;100.00;101156.75;5091038;28;20055;-64
2021/03/10 07:30:11;;;;;;;64.38;9.98;;;;;;;9.46;100.00;101167.44;5090711;28;20047;-65
2021/03/10 07:32:37;;;;;;;63.50;10.23;;;;;;;9.46;100.00;101136.63;5090412;28;20040;-65
2021/03/10 07:35:11;;;;;;;53.85;10.02;;;;;;;9.46;100.00;101152.97;5090799;28;20052;-64
2021/03/10 07:37:39;;;;;;;55.53;10.57;;;;;;;9.47;100.00;101147.28;5090586;28;20489;-64
2021/03/10 07:40:14;;;;;;;41.17;8.60;;;;;;;9.48;100.00;101137.22;5090760;28;20114;-64
2021/03/10 07:42:56;;;;;;;54.13;9.05;;;;;;;9.49;100.00;101136.16;5090680;28;20042;-64
2021/03/10 07:45:25;;;;;;;62.78;8.63;;;;;;;9.49;100.00;101136.16;5090950;28;20036;-64
2021/03/10 07:47:57;;;;;;;51.25;8.80;;;;;;;9.50;100.00;101143.28;5094219;28;20110;-64
2021/03/10 07:50:42;;;;;;;48.85;8.05;;;;;;;9.50;100.00;101133.19;5094542;28;20039;-64
2021/03/10 07:53:08;;;;;;;54.03;10.40;;;;;;;9.50;100.00;101137.81;5094638;28;20067;-65
2021/03/10 07:55:46;;;;;;;53.42;9.40;;;;;;;9.49;100.00;101119.78;5094355;28;20039;-65
2021/03/10 07:58:12;;;;;;;53.88;9.45;;;;;;;9.49;100.00;101136.16;5094395;28;20397;-64
2021/03/10 08:00:39;;;;;;;71.57;10.35;;;;;;;9.49;100.00;101120.63;5094329;28;20134;-64
2021/03/10 08:03:06;;;;;;;57.92;9.43;;;;;;;9.50;100.00;101107.81;5094190;28;20024;-65
2021/03/10 08:05:33;;;;;;;54.72;9.25;;;;;;;9.50;100.00;101110.56;5094357;28;20028;-65
2021/03/10 08:08:07;;;;;;;64.75;9.55;;;;;;;9.50;100.00;101088.75;5094461;28;20036;-64
2021/03/10 08:10:35;;;;;;;67.28;10.23;;;;;;;9.51;100.00;101104.03;5094112;28;20513;-64
2021/03/10 08:13:12;;;;;;;58.38;9.10;;;;;;;9.51;100.00;101093.97;5094303;28;20036;-64
2021/03/10 08:15:38;;;;;;;58.53;10.10;;;;;;;9.51;100.00;101106.75;5094285;28;20032;-65
2021/03/10 08:18:06;;;;;;;52.22;10.15;;;;;;;9.51;100.00;101098.59;5094086;28;20093;-64
2021/03/10 08:20:35;;;;;;;58.95;9.50;;;;;;;9.51;100.00;101098.59;5093964;28;20040;-64
2021/03/10 08:23:02;;;;;;;59.45;9.80;;;;;;;9.51;100.00;101093.13;5093807;28;20124;-64
2021/03/10 08:25:29;;;;;;;64.80;8.95;;;;;;;9.51;100.00;101107.59;5093784;28;20090;-64
2021/03/10 08:27:56;;;;;;;55.58;7.90;;;;;;;9.52;100.00;101070.25;5093831;28;20102;-64
2021/03/10 08:30:24;;;;;;;43.53;7.90;;;;;;;9.53;100.00;101077.38;5093662;28;20036;-64
2021/03/10 08:32:50;;;;;;;58.72;8.65;;;;;;;9.52;100.00;101100.25;5093583;28;20036;-65
2021/03/10 08:35:20;;;;;;;48.67;7.93;;;;;;;9.54;100.00;101089.94;5090953;28;20035;-64
2021/03/10 08:37:57;;;;;;;60.60;9.32;;;;;;;9.53;100.00;101101.91;5072894;28;20573;-64
2021/03/10 08:40:25;;;;;;;52.42;8.02;;;;;;;9.54;100.00;101106.31;5073206;28;20141;-64
2021/03/10 08:42:52;;;;;;;53.03;7.65;;;;;;;9.54;100.00;101106.31;5072973;28;20115;-64
2021/03/10 08:45:26;;;;;;;56.97;8.50;;;;;;;9.54;100.00;101117.19;5073151;28;20036;-64
2021/03/10 08:48:06;;;;;;;59.78;8.80;;;;;;;9.55;100.00;101081.56;5055160;28;20468;-63
2021/03/10 08:50:35;;;;;;;58.72;8.35;;;;;;;9.55;100.00;101094.38;5062828;28;20028;-63
2021/03/10 08:53:02;;;;;;;49.60;7.72;;;;;;;9.55;100.00;101088.91;5072134;28;20479;-63
2021/03/10 08:55:27;;;;;;;71.00;8.13;;;;;;;9.55;100.00;101124.34;5072631;28;20145;-63
2021/03/10 08:57:54;;;;;;;47.75;8.05;;;;;;;9.55;100.00;101078.00;5072076;28;20419;-65
2021/03/10 09:00:25;;;;;;;67.35;9.18;;;;;;;9.56;100.00;101109.66;5071597;28;20079;-64
2021/03/10 09:02:52;;;;;;;59.95;8.43;;;;;;;9.57;100.00;101100.41;5071608;28;20139;-63
2021/03/10 09:05:25;;;;;;;65.45;7.93;;;;;;;9.59;100.00;101076.47;5072260;28;20037;-63
2021/03/10 09:07:51;;;;;;;66.70;9.38;;;;;;;9.58;100.00;101091.16;5072255;28;20032;-65
2021/03/10 09:10:18;;;;;;;53.83;7.93;;;;;;;9.60;100.00;101097.22;5070628;28;20040;-66
2021/03/10 09:12:47;;;;;;;58.30;9.20;;;;;;;9.61;100.00;101097.00;5071227;28;20119;-63
2021/03/10 09:15:18;;;;;;;50.58;8.63;;;;;;;9.61;100.00;101085.25;5071699;28;20404;-63
2021/03/10 09:17:44;;;;;;;49.78;9.32;;;;;;;9.61;100.00;101079.78;5071911;28;20044;-65
2021/03/10 09:20:25;;;;;;;47.03;7.15;;;;;;;9.60;100.00;101089.88;5071695;28;20036;-65
2021/03/10 09:22:51;;;;;;;47.25;7.43;;;;;;;9.61;100.00;101079.78;5071961;28;20040;-68
2021/03/10 09:25:21;;;;;;;64.75;8.98;;;;;;;9.61;100.00;101069.72;5071501;28;20098;-62
2021/03/10 09:27:47;;;;;;;59.85;7.65;;;;;;;9.61;100.00;101069.72;5071762;28;20021;-63
2021/03/10 09:30:35;;;;;;;57.33;7.28;;;;;;;9.62;100.00;101081.47;5071625;28;20079;-63
2021/03/10 09:33:01;;;;;;;59.17;8.60;;;;;;;9.62;100.00;101070.56;5071450;28;20025;-63
2021/03/10 09:35:37;;;;;;;51.03;7.18;;;;;;;9.63;100.00;101067.59;5070674;28;20036;-65
2021/03/10 09:38:06;;;;;;;56.63;6.57;;;;;;;9.65;100.00;101059.19;5070333;28;20065;-63
2021/03/10 09:40:44;;;;;;;46.17;6.72;;;;;;;9.65;100.00;101048.25;5053505;28;20391;-62
2021/03/10 09:43:19;;;;;;;46.58;7.03;;;;;;;9.66;100.00;101017.19;5071121;28;20494;-63
2021/03/10 09:45:46;;;;;;;44.65;5.85;;;;;;;9.67;100.00;101043.41;5071444;28;20038;-65
2021/03/10 09:48:15;;;;;;;54.75;7.30;;;;;;;9.68;100.00;101036.88;5071656;28;20486;-63
2021/03/10 09:50:45;;;;;;;43.03;7.13;;;;;;;9.69;100.00;101022.19;5070886;28;20107;-67
2021/03/10 09:53:14;;;;;;;45.20;7.20;;;;;;;9.68;100.00;101006.88;5070782;28;20032;-68
2021/03/10 09:55:40;;;;;;;42.05;5.65;;;;;;;9.72;100.00;101010.84;5071410;28;20521;-67
2021/03/10 09:58:08;;;;;;;50.33;7.40;;;;;;;9.73;100.00;101012.50;5071677;28;20079;-67
2021/03/10 10:00:35;;;;;;;46.60;6.88;;;;;;;9.73;100.00;101012.50;5071159;28;20051;-64
2021/03/10 10:03:01;;;;;;;42.13;6.15;;;;;;;9.73;100.00;101006.22;5070591;28;20028;-67
2021/03/10 10:05:30;;;;;;;50.10;7.07;;;;;;;9.69;100.00;101000.38;5071174;28;20036;-63
2021/03/10 10:07:57;;;;;;;55.47;6.65;;;;;;;9.69;100.00;101003.09;5069868;28;20063;-65
2021/03/10 10:10:24;;;;;;;49.60;6.80;;;;;;;9.70;100.00;101001.19;5070442;28;20037;-65
2021/03/10 10:12:52;;;;;;;35.08;5.18;;;;;;;9.71;100.00;100998.25;5070510;28;20047;-66
2021/03/10 10:15:20;;;;;;;36.85;6.03;;;;;;;9.73;100.00;100990.69;5069348;28;20036;-63
2021/03/10 10:17:48;;;;;;;61.97;7.28;;;;;;;9.73;100.00;100985.22;5070093;28;20037;-63
2021/03/10 10:20:17;;;;;;;48.60;8.32;;;;;;;9.74;100.00;100975.97;5070886;28;20042;-63
2021/03/10 10:22:44;;;;;;;42.95;7.18;;;;;;;9.75;100.00;100966.72;5065510;28;20694;-64
2021/03/10 10:25:12;;;;;;;50.53;9.55;;;;;;;9.75;100.00;100969.47;5071190;28;20479;-64
2021/03/10 10:27:40;;;;;;;49.53;5.97;;;;;;;9.76;100.00;100976.56;5071642;28;20020;-65
2021/03/10 10:30:07;;;;;;;43.75;5.55;;;;;;;9.80;100.00;100942.28;5070514;28;20041;-64
2021/03/10 10:32:33;;;;;;;58.42;8.00;;;;;;;9.80;100.00;100947.75;5070407;28;20059;-65
2021/03/10 10:34:58;;;;;;;48.65;7.30;;;;;;;9.80;100.00;100961.41;5052766;28;20589;-64
2021/03/10 10:37:24;;;;;;;44.15;7.40;;;;;;;9.81;100.00;100959.50;5070293;28;20032;-64
2021/03/10 10:39:50;;;;;;;60.95;6.72;;;;;;;9.82;100.00;100959.25;5061929;28;20050;-65
2021/03/10 10:42:17;;;;;;;56.10;8.27;;;;;;;9.85;100.00;100939.69;5069056;28;20050;-63
2021/03/10 10:44:43;;;;;;;37.55;6.47;;;;;;;9.88;100.00;100917.38;5070185;28;20390;-64
2021/03/10 10:47:10;;;;;;;55.45;7.47;;;;;;;9.90;100.00;100926.19;5069836;28;20087;-65
2021/03/10 10:49:35;;;;;;;57.90;8.10;;;;;;;9.90;100.00;100914.44;5070726;28;20086;-64
2021/03/10 10:52:01;;;;;;;39.47;7.05;;;;;;;9.91;100.00;100927.84;5052428;28;20483;-62
2021/03/10 10:54:27;;;;;;;48.70;8.43;;;;;;;9.93;100.00;100903.88;5068639;28;20152;-63
2021/03/10 10:56:53;;;;;;;54.30;7.18;;;;;;;9.96;100.00;100911.59;5070338;28;20037;-64
2021/03/10 10:59:18;;;;;;;55.83;7.82;;;;;;;9.99;100.00;100907.56;5069899;28;20093;-64
2021/03/10 11:01:44;;;;;;;40.67;6.88;;;;;;;10.01;100.00;100907.31;5070140;28;20060;-63
2021/03/10 11:04:11;;;;;;;55.33;7.72;;;;;;;10.04;100.00;100909.56;5070648;28;20068;-63
2021/03/10 11:06:37;;;;;;;52.08;6.95;;;;;;;10.04;100.00;100904.94;5069691;28;20066;-63
2021/03/10 11:09:03;;;;;;;38.70;5.68;;;;;;;10.08;100.00;100905.31;5069267;28;20037;-67
2021/03/10 11:11:29;;;;;;;46.20;6.30;;;;;;;10.06;100.00;100918.34;5051470;28;20036;-63
2021/03/10 11:13:55;;;;;;;35.15;5.22;;;;;;;10.07;100.00;100914.59;5069744;28;20041;-63
2021/03/10 11:16:23;;;;;;;49.30;6.68;;;;;;;10.08;100.00;100910.78;5070287;28;20044;-64
2021/03/10 11:18:49;;;;;;;34.63;5.38;;;;;;;10.10;100.00;100908.66;5069087;28;20063;-63
2021/03/10 11:21:15;;;;;;;39.35;6.18;;;;;;;10.14;100.00;100897.00;5070890;28;20124;-65